Time;durP1;ratioP1;P1;durP2;ratioP2;P2;SDS_P1;SDS_P2;PMS_P1;PMS_P2;Temp;Humidity;BMP_temperature;BMP_pressure;BME280_temperature;BME280_humidity;BME280_pressure;Samples;Min_cycle;Max_cycle;Signal;HPM_P1;HPM_P2
2023/02/20 00:00:40;;;;;;;1.70;1.50;;;;;;;;;;5100295;28;20575;-63
2023/02/20 00:03:08;;;;;;;2.80;2.23;;;;;;;;;;5100506;28;20237;-63
2023/02/20 00:05:36;;;;;;;2.37;2.17;;;;;;;;;;5100669;28;20212;-63
2023/02/20 00:08:05;;;;;;;1.90;1.80;;;;;;;;;;5099545;28;20229;-63
2023/02/20 00:10:33;;;;;;;2.93;1.90;;;;;;;;;;5100523;28;20210;-63
2023/02/20 00:13:01;;;;;;;2.57;2.10;;;;;;;;;;5100055;28;20228;-63
2023/02/20 00:15:29;;;;;;;2.20;2.00;;;;;;;;;;5100392;28;20290;-63
2023/02/20 00:17:58;;;;;;;1.93;1.83;;;;;;;;;;5100147;28;20257;-63
2023/02/20 00:20:29;;;;;;;3.43;2.30;;;;;;;;;;5099802;28;20251;-63
2023/02/20 00:22:57;;;;;;;2.00;1.90;;;;;;;;;;5099916;28;20312;-63
2023/02/20 00:25:25;;;;;;;2.40;2.20;;;;;;;;;;5100339;28;20206;-63
2023/02/20 00:27:52;;;;;;;2.20;2.00;;;;;;;;;;5100186;28;20224;-63
2023/02/20 00:30:22;;;;;;;2.90;2.60;;;;;;;;;;5099728;28;20202;-63
2023/02/20 00:32:51;;;;;;;2.57;2.10;;;;;;;;;;5100077;28;20221;-63
2023/02/20 00:35:21;;;;;;;3.77;1.93;;;;;;;;;;5099837;28;20212;-63
2023/02/20 00:37:49;;;;;;;3.50;2.10;;;;;;;;;;5099701;28;20271;-63
2023/02/20 00:40:18;;;;;;;2.50;2.00;;;;;;;;;;5099565;28;20209;-63
2023/02/20 00:42:46;;;;;;;21.00;14.20;;;;;;;;;;5099325;28;20257;-63
2023/02/20 00:45:14;;;;;;;12.63;8.27;;;;;;;;;;5096604;28;20208;-63
2023/02/20 00:47:42;;;;;;;3.07;2.57;;;;;;;;;;5092531;28;20237;-63
2023/02/20 00:50:12;;;;;;;1.90;1.80;;;;;;;;;;5099597;28;20237;-63
2023/02/20 00:52:42;;;;;;;1.50;1.40;;;;;;;;;;5099486;28;20237;-62
2023/02/20 00:55:10;;;;;;;3.80;1.80;;;;;;;;;;5099214;28;20205;-63
2023/02/20 00:57:38;;;;;;;1.90;1.80;;;;;;;;;;5099292;28;20215;-62
2023/02/20 01:00:09;;;;;;;2.77;1.90;;;;;;;;;;5099285;28;20674;-62
2023/02/20 01:02:37;;;;;;;2.40;2.00;;;;;;;;;;5099059;28;20683;-63
2023/02/20 01:05:05;;;;;;;2.70;2.00;;;;;;;;;;5099248;28;20221;-63
2023/02/20 01:07:33;;;;;;;1.50;1.40;;;;;;;;;;5099294;28;20240;-63
2023/02/20 01:10:03;;;;;;;2.23;1.73;;;;;;;;;;5098954;28;20684;-63
2023/02/20 01:12:31;;;;;;;2.63;2.07;;;;;;;;;;5098844;28;20757;-63
2023/02/20 01:14:59;;;;;;;1.97;1.77;;;;;;;;;;5098992;28;20289;-63
2023/02/20 01:17:27;;;;;;;2.33;2.13;;;;;;;;;;5099083;28;20206;-63
2023/02/20 01:19:55;;;;;;;1.70;1.60;;;;;;;;;;5098131;28;20237;-63
2023/02/20 01:22:23;;;;;;;2.40;2.20;;;;;;;;;;5098864;28;20570;-62
2023/02/20 01:24:51;;;;;;;2.10;1.90;;;;;;;;;;5098417;28;20233;-63
2023/02/20 01:27:20;;;;;;;2.03;1.90;;;;;;;;;;5098724;28;20546;-63
2023/02/20 01:29:48;;;;;;;2.00;1.80;;;;;;;;;;5098966;28;20205;-63
2023/02/20 01:32:16;;;;;;;2.17;1.83;;;;;;;;;;5098568;28;20711;-63
2023/02/20 01:34:44;;;;;;;2.37;1.77;;;;;;;;;;5098716;28;20225;-63
2023/02/20 01:37:13;;;;;;;3.47;1.87;;;;;;;;;;5098635;28;20316;-62
2023/02/20 01:39:42;;;;;;;2.67;2.20;;;;;;;;;;5093366;28;20213;-63
2023/02/20 01:42:12;;;;;;;3.10;2.30;;;;;;;;;;5092368;28;20232;-63
2023/02/20 01:44:42;;;;;;;1.80;1.70;;;;;;;;;;5097817;28;20631;-63
2023/02/20 01:47:13;;;;;;;3.67;2.40;;;;;;;;;;5098305;28;20688;-63
2023/02/20 01:49:42;;;;;;;1.77;1.67;;;;;;;;;;5098287;28;20240;-62
2023/02/20 01:52:15;;;;;;;2.30;2.07;;;;;;;;;;5098475;28;20232;-63
2023/02/20 01:54:45;;;;;;;2.53;2.13;;;;;;;;;;5098314;28;20236;-63
2023/02/20 01:57:14;;;;;;;2.67;1.97;;;;;;;;;;5098388;28;20233;-63
2023/02/20 01:59:44;;;;;;;2.80;2.10;;;;;;;;;;5098599;28;20292;-62
2023/02/20 02:02:12;;;;;;;1.90;1.80;;;;;;;;;;5098096;28;20209;-63
2023/02/20 02:04:41;;;;;;;1.80;1.70;;;;;;;;;;5098131;28;20233;-63
2023/02/20 02:07:10;;;;;;;1.80;1.70;;;;;;;;;;5098053;28;20233;-63
2023/02/20 02:09:41;;;;;;;2.07;1.70;;;;;;;;;;5098022;28;20212;-63
2023/02/20 02:12:09;;;;;;;2.00;1.80;;;;;;;;;;5098072;28;20205;-62
2023/02/20 02:14:37;;;;;;;3.43;2.13;;;;;;;;;;5095538;28;20225;-63
2023/02/20 02:17:13;;;;;;;2.63;2.30;;;;;;;;;;5086922;28;20212;-62
2023/02/20 02:20:14;;;;;;;1.60;1.50;;;;;;;;;;5089259;28;20298;-62
2023/02/20 02:22:57;;;;;;;2.00;1.43;;;;;;;;;;5086853;28;20712;-63
2023/02/20 02:25:32;;;;;;;1.67;1.40;;;;;;;;;;5095070;28;20596;-63
2023/02/20 02:28:15;;;;;;;2.20;2.00;;;;;;;;;;5097859;28;20208;-63
2023/02/20 02:31:01;;;;;;;2.87;1.77;;;;;;;;;;5097933;28;20241;-63
2023/02/20 02:33:34;;;;;;;1.70;1.60;;;;;;;;;;5097682;28;20291;-63
2023/02/20 02:36:32;;;;;;;1.50;1.40;;;;;;;;;;5097730;28;20649;-63
2023/02/20 02:39:05;;;;;;;2.77;1.60;;;;;;;;;;5015402;28;20578;-63
2023/02/20 02:41:39;;;;;;;1.70;1.60;;;;;;;;;;5081400;28;20239;-63
2023/02/20 02:44:11;;;;;;;3.57;1.93;;;;;;;;;;5097677;28;20292;-63
2023/02/20 02:46:40;;;;;;;3.50;1.63;;;;;;;;;;5096014;28;20661;-62
2023/02/20 02:49:12;;;;;;;2.43;1.83;;;;;;;;;;5097657;28;20728;-63
2023/02/20 02:51:44;;;;;;;2.33;1.83;;;;;;;;;;5097653;28;20205;-62
2023/02/20 02:54:14;;;;;;;3.53;2.17;;;;;;;;;;5091593;28;20253;-63
2023/02/20 02:56:44;;;;;;;2.20;2.00;;;;;;;;;;5093239;28;20237;-63
2023/02/20 02:59:14;;;;;;;2.00;1.80;;;;;;;;;;5097831;28;20216;-62
2023/02/20 03:01:44;;;;;;;3.43;1.90;;;;;;;;;;5097735;28;20289;-63
2023/02/20 03:04:13;;;;;;;2.30;2.20;;;;;;;;;;5091951;28;20224;-63
2023/02/20 03:06:42;;;;;;;2.80;2.00;;;;;;;;;;5088830;28;20197;-63
2023/02/20 03:09:12;;;;;;;2.40;2.03;;;;;;;;;;5097440;28;20240;-63
2023/02/20 03:11:42;;;;;;;2.80;1.80;;;;;;;;;;5097414;28;20712;-63
2023/02/20 03:16:59;;;;;;;3.27;2.23;;;;;;;;;;5097371;28;20584;-63
2023/02/20 03:19:28;;;;;;;3.27;2.20;;;;;;;;;;5097251;28;20681;-63
2023/02/20 03:21:57;;;;;;;1.93;1.77;;;;;;;;;;5097310;28;20205;-63
2023/02/20 03:24:26;;;;;;;2.30;2.10;;;;;;;;;;5097108;28;20237;-63
2023/02/20 03:26:56;;;;;;;3.07;1.93;;;;;;;;;;5097611;28;20240;-63
2023/02/20 03:29:27;;;;;;;2.20;2.00;;;;;;;;;;5097326;28;20205;-63
2023/02/20 03:43:22;;;;;;;2.23;2.00;;;;;;;;;;5098599;28;20304;-62
2023/02/20 03:45:51;;;;;;;2.60;1.70;;;;;;;;;;5100440;28;20221;-62
2023/02/20 03:48:22;;;;;;;2.97;2.57;;;;;;;;;;5100858;28;20215;-62
2023/02/20 03:50:50;;;;;;;2.80;2.60;;;;;;;;;;5100949;28;20214;-62
2023/02/20 03:53:18;;;;;;;3.60;2.80;;;;;;;;;;5100158;28;20228;-63
2023/02/20 03:55:47;;;;;;;5.50;2.70;;;;;;;;;;5100677;28;20205;-62
2023/02/20 03:58:19;;;;;;;4.33;3.30;;;;;;;;;;5100367;28;20639;-63
2023/02/20 04:00:48;;;;;;;4.37;3.00;;;;;;;;;;5100466;28;20635;-62
2023/02/20 04:03:17;;;;;;;3.13;2.83;;;;;;;;;;5100573;28;20229;-62
2023/02/20 04:05:47;;;;;;;3.30;2.57;;;;;;;;;;5100532;28;20267;-62
2023/02/20 04:08:17;;;;;;;3.13;2.60;;;;;;;;;;5099928;28;20220;-62
2023/02/20 04:10:46;;;;;;;2.53;2.33;;;;;;;;;;5100652;28;20216;-63
2023/02/20 04:13:17;;;;;;;2.20;2.00;;;;;;;;;;5100278;28;20236;-61
2023/02/20 04:15:45;;;;;;;6.53;2.20;;;;;;;;;;5100163;28;20612;-61
2023/02/20 04:18:15;;;;;;;1.87;1.77;;;;;;;;;;5100118;28;20259;-61
2023/02/20 04:20:43;;;;;;;2.20;2.00;;;;;;;;;;5099950;28;20216;-60
2023/02/20 04:23:13;;;;;;;2.30;1.97;;;;;;;;;;5099922;28;20260;-62
2023/02/20 04:25:43;;;;;;;2.30;2.10;;;;;;;;;;5099824;28;20224;-62
2023/02/20 04:28:12;;;;;;;4.83;2.40;;;;;;;;;;5100140;28;20268;-61
2023/02/20 04:30:41;;;;;;;3.00;2.30;;;;;;;;;;5099842;28;20660;-60
2023/02/20 04:33:10;;;;;;;5.17;2.60;;;;;;;;;;5099724;28;20225;-61
2023/02/20 04:35:38;;;;;;;3.53;2.43;;;;;;;;;;5099635;28;20667;-61
2023/02/20 04:38:06;;;;;;;3.87;2.60;;;;;;;;;;5099365;28;20310;-62
2023/02/20 04:40:34;;;;;;;2.40;2.20;;;;;;;;;;5099804;28;20240;-62
2023/02/20 04:43:02;;;;;;;1.97;1.87;;;;;;;;;;5099744;28;20257;-62
2023/02/20 04:45:30;;;;;;;2.97;2.40;;;;;;;;;;5099785;28;20256;-63
2023/02/20 04:47:59;;;;;;;2.23;2.00;;;;;;;;;;5099498;28;20628;-62
2023/02/20 04:50:29;;;;;;;2.13;1.93;;;;;;;;;;5099699;28;20206;-61
2023/02/20 04:52:57;;;;;;;3.70;2.23;;;;;;;;;;5093575;28;20225;-61
2023/02/20 04:55:25;;;;;;;2.93;2.00;;;;;;;;;;5089928;28;20684;-62
2023/02/20 04:57:55;;;;;;;5.30;2.23;;;;;;;;;;5098076;28;20237;-61
2023/02/20 05:00:24;;;;;;;1.97;1.77;;;;;;;;;;5099186;28;20215;-61
2023/02/20 05:02:52;;;;;;;2.17;1.70;;;;;;;;;;5099179;28;20233;-61
2023/02/20 05:05:22;;;;;;;1.90;1.80;;;;;;;;;;5099163;28;20210;-61
2023/02/20 05:07:53;;;;;;;7.83;2.03;;;;;;;;;;5098930;28;20653;-61
2023/02/20 05:10:21;;;;;;;1.77;1.67;;;;;;;;;;5099245;28;20240;-60
2023/02/20 05:12:49;;;;;;;2.93;1.90;;;;;;;;;;5099242;28;20226;-62
2023/02/20 05:15:18;;;;;;;4.97;2.23;;;;;;;;;;5099386;28;20205;-62
2023/02/20 05:17:46;;;;;;;3.00;1.90;;;;;;;;;;5099266;28;20253;-62
2023/02/20 05:20:14;;;;;;;2.60;1.80;;;;;;;;;;5098975;28;20258;-61
2023/02/20 05:22:43;;;;;;;2.77;2.13;;;;;;;;;;5098232;28;20232;-62
2023/02/20 05:25:12;;;;;;;2.30;2.10;;;;;;;;;;5097685;28;20711;-62
2023/02/20 05:27:41;;;;;;;2.30;1.93;;;;;;;;;;5092953;28;20558;-63
2023/02/20 05:30:10;;;;;;;1.93;1.83;;;;;;;;;;5095864;28;20201;-62
2023/02/20 05:32:38;;;;;;;3.13;1.73;;;;;;;;;;5096251;28;20204;-63
2023/02/20 05:35:06;;;;;;;2.47;1.77;;;;;;;;;;5097504;28;20225;-63
2023/02/20 05:37:34;;;;;;;2.30;2.10;;;;;;;;;;5097818;28;20319;-63
2023/02/20 05:40:04;;;;;;;2.20;2.00;;;;;;;;;;5098109;28;20584;-61
2023/02/20 05:42:32;;;;;;;3.10;2.23;;;;;;;;;;5098365;28;20194;-61
2023/02/20 05:45:03;;;;;;;6.77;2.53;;;;;;;;;;5098627;28;20233;-62
2023/02/20 05:47:32;;;;;;;2.33;1.87;;;;;;;;;;5098505;28;20229;-61
2023/02/20 05:50:00;;;;;;;3.00;2.27;;;;;;;;;;5098269;28;20553;-61
2023/02/20 05:52:28;;;;;;;3.30;2.30;;;;;;;;;;5098725;28;20201;-62
2023/02/20 05:54:56;;;;;;;7.60;2.23;;;;;;;;;;5098016;28;20288;-62
2023/02/20 05:57:26;;;;;;;3.80;2.53;;;;;;;;;;5097802;28;20197;-61
2023/02/20 05:59:54;;;;;;;3.10;2.50;;;;;;;;;;5096387;28;20288;-62
2023/02/20 06:02:22;;;;;;;4.80;2.37;;;;;;;;;;5096535;28;20257;-62
2023/02/20 06:04:50;;;;;;;2.63;2.43;;;;;;;;;;5096505;28;20288;-62
2023/02/20 06:07:18;;;;;;;6.07;2.30;;;;;;;;;;5096073;28;20256;-62
2023/02/20 06:09:46;;;;;;;3.00;2.40;;;;;;;;;;5096206;28;20237;-63
2023/02/20 06:12:14;;;;;;;2.60;2.33;;;;;;;;;;5090660;28;20206;-63
2023/02/20 06:14:44;;;;;;;3.67;2.60;;;;;;;;;;5087804;28;20225;-63
2023/02/20 06:17:12;;;;;;;2.47;2.20;;;;;;;;;;5092887;28;20202;-62
2023/02/20 06:19:40;;;;;;;2.43;2.23;;;;;;;;;;5093331;28;20232;-62
2023/02/20 06:22:09;;;;;;;3.13;2.70;;;;;;;;;;5097494;28;20202;-62
2023/02/20 06:24:37;;;;;;;3.47;2.60;;;;;;;;;;5097618;28;20237;-63
2023/02/20 06:27:07;;;;;;;6.17;2.47;;;;;;;;;;5097707;28;20225;-61
2023/02/20 06:29:35;;;;;;;2.80;2.17;;;;;;;;;;5097972;28;20207;-61
2023/02/20 06:32:05;;;;;;;4.80;3.10;;;;;;;;;;5098050;28;20224;-62
2023/02/20 06:34:33;;;;;;;3.87;2.70;;;;;;;;;;5097282;28;20753;-61
2023/02/20 06:37:02;;;;;;;3.50;2.57;;;;;;;;;;5094431;28;20239;-62
2023/02/20 06:39:30;;;;;;;4.60;2.80;;;;;;;;;;5097345;28;20206;-62
2023/02/20 06:41:58;;;;;;;7.57;3.10;;;;;;;;;;5097304;28;20198;-61
2023/02/20 06:44:26;;;;;;;5.07;2.90;;;;;;;;;;5095199;28;20711;-62
2023/02/20 06:46:54;;;;;;;5.10;2.73;;;;;;;;;;5095216;28;20329;-62
2023/02/20 06:49:23;;;;;;;2.93;2.40;;;;;;;;;;5094846;28;20205;-62
2023/02/20 06:51:52;;;;;;;2.80;2.53;;;;;;;;;;5093594;28;20598;-63
2023/02/20 06:54:21;;;;;;;4.80;3.00;;;;;;;;;;5094793;28;20218;-62
2023/02/20 06:56:50;;;;;;;3.23;2.73;;;;;;;;;;5095742;28;20201;-61
2023/02/20 06:59:18;;;;;;;6.30;3.10;;;;;;;;;;5097501;28;20233;-61
2023/02/20 07:01:45;;;;;;;6.27;4.63;;;;;;;;;;5097778;28;20206;-61
2023/02/20 07:04:16;;;;;;;12.67;5.77;;;;;;;;;;5097169;28;20225;-61
2023/02/20 07:06:46;;;;;;;12.17;5.80;;;;;;;;;;5097413;28;20225;-63
2023/02/20 07:09:14;;;;;;;9.83;5.60;;;;;;;;;;5097407;28;20201;-63
2023/02/20 07:11:42;;;;;;;8.17;4.47;;;;;;;;;;5097451;28;20205;-63
2023/02/20 07:14:10;;;;;;;8.73;4.77;;;;;;;;;;5097253;28;20289;-63
2023/02/20 07:16:38;;;;;;;5.47;4.37;;;;;;;;;;5097399;28;20240;-63
2023/02/20 07:19:06;;;;;;;4.57;3.87;;;;;;;;;;5100264;28;20209;-63
2023/02/20 07:21:34;;;;;;;5.87;3.70;;;;;;;;;;5101335;28;20212;-63
2023/02/20 07:24:04;;;;;;;7.13;4.10;;;;;;;;;;5100830;28;20233;-63
2023/02/20 07:26:32;;;;;;;3.83;3.43;;;;;;;;;;5100962;28;20566;-63
2023/02/20 07:29:00;;;;;;;4.33;3.70;;;;;;;;;;5101204;28;20205;-63
2023/02/20 07:31:28;;;;;;;6.10;4.07;;;;;;;;;;5101232;28;20229;-63
2023/02/20 07:33:57;;;;;;;7.63;4.20;;;;;;;;;;5101090;28;20232;-62
2023/02/20 07:36:25;;;;;;;5.33;3.70;;;;;;;;;;5101094;28;20205;-62
2023/02/20 07:38:54;;;;;;;5.20;4.20;;;;;;;;;;5100101;28;20304;-63
2023/02/20 07:41:23;;;;;;;4.37;3.97;;;;;;;;;;5099276;28;20221;-62
2023/02/20 07:43:51;;;;;;;4.37;3.97;;;;;;;;;;5099657;28;20243;-62
2023/02/20 07:46:19;;;;;;;7.23;4.23;;;;;;;;;;5100741;28;20229;-62
2023/02/20 07:48:47;;;;;;;7.67;4.80;;;;;;;;;;5100647;28;20253;-60
2023/02/20 07:51:16;;;;;;;5.93;4.17;;;;;;;;;;5100822;28;20206;-61
2023/02/20 07:53:47;;;;;;;8.57;3.80;;;;;;;;;;5100534;28;20229;-61
2023/02/20 07:56:15;;;;;;;6.63;4.40;;;;;;;;;;5100201;28;20664;-61
2023/02/20 07:58:44;;;;;;;7.37;5.20;;;;;;;;;;5097385;28;20288;-62
2023/02/20 08:01:12;;;;;;;10.80;4.47;;;;;;;;;;5100476;28;20193;-61
2023/02/20 08:03:40;;;;;;;7.10;5.83;;;;;;;;;;5100481;28;20313;-61
2023/02/20 08:06:09;;;;;;;10.90;5.67;;;;;;;;;;5100194;28;20206;-62
2023/02/20 08:08:37;;;;;;;13.73;5.03;;;;;;;;;;5099390;28;20225;-62
2023/02/20 08:11:05;;;;;;;9.57;4.80;;;;;;;;;;5099864;28;20202;-62
2023/02/20 08:13:37;;;;;;;6.70;4.70;;;;;;;;;;5097840;28;20224;-62
2023/02/20 08:16:06;;;;;;;9.10;5.20;;;;;;;;;;5099776;28;20293;-62
2023/02/20 08:18:34;;;;;;;10.67;6.37;;;;;;;;;;5099171;28;20236;-62
2023/02/20 08:21:02;;;;;;;8.07;5.30;;;;;;;;;;5099948;28;20574;-62
2023/02/20 08:23:30;;;;;;;6.73;5.07;;;;;;;;;;5099516;28;20256;-62
2023/02/20 08:25:59;;;;;;;15.63;5.13;;;;;;;;;;5100059;28;20258;-62
2023/02/20 08:28:27;;;;;;;9.03;5.87;;;;;;;;;;5099575;28;20251;-62
2023/02/20 08:30:55;;;;;;;12.00;5.40;;;;;;;;;;5099377;28;20210;-59
2023/02/20 08:33:25;;;;;;;9.33;5.10;;;;;;;;;;5099615;28;20304;-62
2023/02/20 08:35:54;;;;;;;7.90;5.07;;;;;;;;;;5099138;28;20306;-62
2023/02/20 08:38:24;;;;;;;6.53;5.20;;;;;;;;;;5098964;28;20255;-61
2023/02/20 08:40:52;;;;;;;12.07;5.23;;;;;;;;;;5099769;28;20201;-62
2023/02/20 08:43:20;;;;;;;7.13;5.03;;;;;;;;;;5096036;28;20275;-60
2023/02/20 08:45:48;;;;;;;12.33;6.23;;;;;;;;;;5098109;28;20202;-61
2023/02/20 08:48:16;;;;;;;11.00;5.93;;;;;;;;;;5098186;28;20653;-62
2023/02/20 08:50:46;;;;;;;6.80;4.93;;;;;;;;;;5098060;28;20261;-62
2023/02/20 08:53:14;;;;;;;7.83;5.17;;;;;;;;;;5098069;28;20217;-62
2023/02/20 08:55:43;;;;;;;8.17;5.87;;;;;;;;;;5097986;28;20260;-61
2023/02/20 08:58:11;;;;;;;6.10;5.27;;;;;;;;;;5098371;28;20276;-61
2023/02/20 09:00:39;;;;;;;14.30;5.43;;;;;;;;;;5098277;28;20202;-61
2023/02/20 09:03:07;;;;;;;9.77;5.60;;;;;;;;;;5095119;28;20218;-62
2023/02/20 09:05:35;;;;;;;9.43;4.97;;;;;;;;;;5098129;28;20255;-62
2023/02/20 09:08:07;;;;;;;7.07;4.73;;;;;;;;;;5098100;28;20316;-61
2023/02/20 09:10:35;;;;;;;5.10;4.60;;;;;;;;;;5098390;28;20651;-61
2023/02/20 09:13:03;;;;;;;6.30;4.80;;;;;;;;;;5097527;28;20278;-60
2023/02/20 09:15:37;;;;;;;5.97;4.77;;;;;;;;;;5108127;28;20197;-60
2023/02/20 09:18:08;;;;;;;7.97;5.10;;;;;;;;;;5100545;28;20276;-60
2023/02/20 09:20:36;;;;;;;6.30;4.80;;;;;;;;;;5096598;28;20379;-60
2023/02/20 09:23:05;;;;;;;9.43;5.33;;;;;;;;;;5083665;28;20313;-60
2023/02/20 09:25:34;;;;;;;9.10;4.70;;;;;;;;;;5092790;28;20202;-60
2023/02/20 09:28:02;;;;;;;6.57;4.93;;;;;;;;;;5089946;28;20253;-59
2023/02/20 09:30:30;;;;;;;6.50;4.87;;;;;;;;;;5092026;28;20243;-59
2023/02/20 09:32:58;;;;;;;8.90;4.93;;;;;;;;;;5089381;28;20721;-60
2023/02/20 09:35:28;;;;;;;8.30;5.13;;;;;;;;;;5098274;28;20205;-60
2023/02/20 09:37:56;;;;;;;7.17;4.73;;;;;;;;;;5093738;28;20237;-60
2023/02/20 09:40:25;;;;;;;9.33;5.10;;;;;;;;;;5090373;28;20225;-60
2023/02/20 09:43:12;;;;;;;6.50;4.13;;;;;;;;;;5091829;28;20587;-60
2023/02/20 09:45:41;;;;;;;6.43;4.27;;;;;;;;;;5081370;28;20244;-60
2023/02/20 09:48:16;;;;;;;7.37;4.10;;;;;;;;;;5088597;28;20697;-59
2023/02/20 09:50:48;;;;;;;9.57;4.67;;;;;;;;;;5096696;28;20300;-61
2023/02/20 09:53:20;;;;;;;5.20;4.43;;;;;;;;;;5089680;28;20225;-60
2023/02/20 09:55:49;;;;;;;9.87;4.97;;;;;;;;;;5094364;28;20207;-60
2023/02/20 09:58:26;;;;;;;4.50;3.40;;;;;;;;;;5098273;28;20240;-60
2023/02/20 10:00:56;;;;;;;8.13;4.13;;;;;;;;;;5098079;28;20288;-60
2023/02/20 10:03:29;;;;;;;6.23;3.13;;;;;;;;;;5097439;28;20256;-61
2023/02/20 10:05:57;;;;;;;7.57;2.97;;;;;;;;;;5087742;28;20233;-61
2023/02/20 10:08:25;;;;;;;5.23;2.50;;;;;;;;;;5095499;28;20248;-60
2023/02/20 10:10:57;;;;;;;4.17;2.50;;;;;;;;;;5097929;28;20216;-61
2023/02/20 10:13:39;;;;;;;8.90;2.90;;;;;;;;;;5096015;28;20761;-61
2023/02/20 10:16:12;;;;;;;6.40;2.87;;;;;;;;;;5097487;28;20241;-62
2023/02/20 10:18:44;;;;;;;4.73;2.67;;;;;;;;;;5084392;28;20277;-62
2023/02/20 10:21:15;;;;;;;5.60;2.83;;;;;;;;;;5094235;28;20732;-61
2023/02/20 10:23:47;;;;;;;2.30;2.10;;;;;;;;;;5084199;28;20260;-61
2023/02/20 10:26:33;;;;;;;6.27;2.97;;;;;;;;;;5092385;28;20214;-62
2023/02/20 10:29:14;;;;;;;4.43;2.63;;;;;;;;;;5086943;28;20273;-62
2023/02/20 10:31:45;;;;;;;2.80;2.50;;;;;;;;;;5096303;28;20213;-61
2023/02/20 10:34:16;;;;;;;8.53;4.23;;;;;;;;;;5085390;28;20241;-62
2023/02/20 10:36:47;;;;;;;4.73;2.63;;;;;;;;;;5097798;28;20303;-62
2023/02/20 10:39:16;;;;;;;2.67;2.40;;;;;;;;;;5085942;28;20212;-62
2023/02/20 10:41:50;;;;;;;6.00;3.07;;;;;;;;;;5087463;28;20193;-62
2023/02/20 10:44:21;;;;;;;7.20;3.53;;;;;;;;;;5086559;28;20229;-63
2023/02/20 10:46:52;;;;;;;6.27;3.13;;;;;;;;;;5097633;28;20297;-63
2023/02/20 10:49:24;;;;;;;6.77;2.80;;;;;;;;;;5093620;28;20232;-62
2023/02/20 10:51:55;;;;;;;5.93;2.40;;;;;;;;;;5091441;28;20217;-61
2023/02/20 10:54:26;;;;;;;4.67;2.67;;;;;;;;;;5093423;28;20248;-60
2023/02/20 10:56:57;;;;;;;2.97;2.53;;;;;;;;;;5094961;28;20244;-62
2023/02/20 10:59:31;;;;;;;5.43;3.13;;;;;;;;;;5101465;28;20562;-61
2023/02/20 11:02:00;;;;;;;5.67;2.87;;;;;;;;;;5098590;28;20285;-61
2023/02/20 11:04:32;;;;;;;6.23;3.03;;;;;;;;;;5099196;28;20580;-63
2023/02/20 11:07:01;;;;;;;5.23;3.20;;;;;;;;;;5099447;28;20254;-61
2023/02/20 11:09:29;;;;;;;2.70;2.50;;;;;;;;;;5099054;28;20224;-63
2023/02/20 11:11:58;;;;;;;4.13;3.17;;;;;;;;;;5099093;28;20193;-62
2023/02/20 11:14:32;;;;;;;6.83;3.20;;;;;;;;;;5096605;28;20311;-62
2023/02/20 11:17:11;;;;;;;6.13;3.33;;;;;;;;;;5097595;28;20197;-63
2023/02/20 11:19:41;;;;;;;4.63;3.20;;;;;;;;;;5097410;28;20209;-61
2023/02/20 11:22:09;;;;;;;4.70;3.13;;;;;;;;;;5095021;28;20543;-62
2023/02/20 11:24:38;;;;;;;4.77;3.17;;;;;;;;;;5099395;28;20249;-61
2023/02/20 11:27:09;;;;;;;7.97;3.17;;;;;;;;;;5094689;28;20236;-61
2023/02/20 11:29:46;;;;;;;6.20;3.20;;;;;;;;;;5094648;28;20218;-61
2023/02/20 11:32:32;;;;;;;3.77;2.77;;;;;;;;;;5092366;28;20208;-61
2023/02/20 11:35:20;;;;;;;3.50;3.20;;;;;;;;;;5080922;28;20237;-61
2023/02/20 11:37:49;;;;;;;6.07;3.30;;;;;;;;;;5091184;28;20268;-63
2023/02/20 11:40:25;;;;;;;6.00;3.83;;;;;;;;;;5099932;28;20204;-63
2023/02/20 11:42:53;;;;;;;7.93;3.40;;;;;;;;;;5097723;28;20232;-63
2023/02/20 11:45:24;;;;;;;10.97;3.93;;;;;;;;;;5098100;28;20237;-63
2023/02/20 11:48:09;;;;;;;7.50;3.13;;;;;;;;;;5089022;28;20638;-62
2023/02/20 11:50:41;;;;;;;3.57;3.20;;;;;;;;;;5098910;28;20233;-63
2023/02/20 11:53:16;;;;;;;4.37;3.57;;;;;;;;;;5098390;28;20260;-62
2023/02/20 11:55:44;;;;;;;6.73;3.77;;;;;;;;;;5096411;28;20262;-62
2023/02/20 11:58:27;;;;;;;4.77;2.83;;;;;;;;;;5096666;28;20231;-63
2023/02/20 12:00:56;;;;;;;8.80;2.90;;;;;;;;;;5098528;28;20216;-63
2023/02/20 12:03:27;;;;;;;6.00;2.60;;;;;;;;;;5096095;28;20226;-63
2023/02/20 12:05:55;;;;;;;5.00;3.13;;;;;;;;;;5100199;28;20676;-63
2023/02/20 12:08:41;;;;;;;3.40;2.73;;;;;;;;;;5096370;28;20563;-63
2023/02/20 12:11:10;;;;;;;4.70;2.70;;;;;;;;;;5098346;28;20309;-63
2023/02/20 12:13:39;;;;;;;3.57;2.53;;;;;;;;;;5091812;28;20218;-62
2023/02/20 12:16:30;;;;;;;5.10;3.23;;;;;;;;;;5090584;28;20288;-62
2023/02/20 12:19:03;;;;;;;3.10;2.70;;;;;;;;;;5099803;28;20205;-62
2023/02/20 12:21:36;;;;;;;4.97;2.83;;;;;;;;;;5098323;28;20205;-63
2023/02/20 12:24:09;;;;;;;2.57;2.33;;;;;;;;;;5097961;28;20232;-63
2023/02/20 12:26:43;;;;;;;4.10;2.20;;;;;;;;;;5098565;28;20265;-62
2023/02/20 12:29:18;;;;;;;4.10;2.57;;;;;;;;;;5097634;28;20653;-63
2023/02/20 12:31:51;;;;;;;5.60;3.23;;;;;;;;;;5099786;28;20289;-62
2023/02/20 12:34:31;;;;;;;6.10;3.03;;;;;;;;;;5097076;28;20656;-63
2023/02/20 12:37:03;;;;;;;4.00;3.00;;;;;;;;;;5098953;28;20659;-61
2023/02/20 12:39:36;;;;;;;9.90;4.90;;;;;;;;;;5098058;28;20197;-61
2023/02/20 12:42:10;;;;;;;6.10;2.77;;;;;;;;;;5099212;28;20203;-61
2023/02/20 12:44:44;;;;;;;4.60;2.53;;;;;;;;;;5095802;28;20284;-61
2023/02/20 12:47:16;;;;;;;2.80;2.60;;;;;;;;;;5093670;28;20215;-62
2023/02/20 12:49:54;;;;;;;4.60;2.73;;;;;;;;;;5087499;28;20268;-62
2023/02/20 12:52:30;;;;;;;4.87;2.67;;;;;;;;;;5098792;28;20209;-62
2023/02/20 12:55:00;;;;;;;4.70;2.50;;;;;;;;;;5099032;28;20209;-62
2023/02/20 12:57:33;;;;;;;6.50;3.00;;;;;;;;;;5099323;28;20233;-62
2023/02/20 13:00:02;;;;;;;2.63;2.43;;;;;;;;;;5084977;28;20236;-62
2023/02/20 13:02:35;;;;;;;4.53;2.90;;;;;;;;;;5096710;28;20566;-61
2023/02/20 13:05:12;;;;;;;4.13;2.90;;;;;;;;;;5092512;28;20202;-62
2023/02/20 13:07:42;;;;;;;3.53;2.90;;;;;;;;;;5096691;28;20229;-62
2023/02/20 13:10:14;;;;;;;4.23;2.90;;;;;;;;;;5094430;28;20309;-62
2023/02/20 13:12:42;;;;;;;4.33;3.20;;;;;;;;;;5096437;28;20770;-62
2023/02/20 13:15:20;;;;;;;7.17;2.90;;;;;;;;;;5097297;28;20198;-62
2023/02/20 13:17:53;;;;;;;4.07;2.90;;;;;;;;;;5096117;28;20216;-62
2023/02/20 13:20:25;;;;;;;7.23;2.30;;;;;;;;;;5093310;28;20262;-62
2023/02/20 13:23:00;;;;;;;4.00;1.60;;;;;;;;;;5097512;28;20221;-62
2023/02/20 13:25:38;;;;;;;5.73;2.27;;;;;;;;;;5098124;28;20205;-62
2023/02/20 13:28:21;;;;;;;5.33;2.13;;;;;;;;;;5097736;28;20553;-61
2023/02/20 13:31:06;;;;;;;4.13;2.20;;;;;;;;;;5098633;28;20239;-62
2023/02/20 13:33:36;;;;;;;4.20;2.50;;;;;;;;;;5098421;28;20742;-61
2023/02/20 13:36:27;;;;;;;4.67;2.37;;;;;;;;;;5090419;27;20558;-61
2023/02/20 13:39:13;;;;;;;4.67;2.80;;;;;;;;;;5057383;28;20230;-61
2023/02/20 13:41:56;;;;;;;3.97;2.43;;;;;;;;;;5052891;28;20535;-61
2023/02/20 13:44:37;;;;;;;5.20;2.80;;;;;;;;;;5065610;28;20249;-62
2023/02/20 13:47:25;;;;;;;3.83;2.07;;;;;;;;;;5065751;28;20386;-61
2023/02/20 13:49:56;;;;;;;3.03;2.40;;;;;;;;;;5063241;28;20212;-61
2023/02/20 13:52:40;;;;;;;2.20;2.00;;;;;;;;;;5060573;28;21054;-64
2023/02/20 13:55:14;;;;;;;3.13;1.80;;;;;;;;;;5064698;28;20218;-61
2023/02/20 13:57:44;;;;;;;2.90;1.93;;;;;;;;;;5062674;28;20207;-62
2023/02/20 14:00:21;;;;;;;6.13;2.37;;;;;;;;;;5068134;28;20754;-61
2023/02/20 14:02:49;;;;;;;5.90;1.90;;;;;;;;;;5064126;28;20223;-62
2023/02/20 14:05:19;;;;;;;2.27;1.77;;;;;;;;;;5074399;28;20230;-63
2023/02/20 14:07:48;;;;;;;2.93;2.13;;;;;;;;;;5067315;28;20210;-63
2023/02/20 14:10:17;;;;;;;4.77;2.20;;;;;;;;;;5073986;28;20210;-63
2023/02/20 14:12:46;;;;;;;2.33;2.00;;;;;;;;;;5074094;28;20227;-63
2023/02/20 14:15:51;;;;;;;3.57;2.40;;;;;;;;;;5069138;28;20234;-63
2023/02/20 14:18:24;;;;;;;2.57;2.00;;;;;;;;;;5067706;28;20292;-61
2023/02/20 14:20:55;;;;;;;2.33;2.10;;;;;;;;;;5066055;28;20210;-62
2023/02/20 14:23:25;;;;;;;3.90;1.97;;;;;;;;;;5073683;28;20238;-63
2023/02/20 14:25:54;;;;;;;4.27;2.03;;;;;;;;;;5073772;28;20198;-60
2023/02/20 14:28:28;;;;;;;2.87;1.50;;;;;;;;;;5067224;28;20206;-62
2023/02/20 14:31:07;;;;;;;4.10;1.80;;;;;;;;;;5066636;28;20202;-61
2023/02/20 14:33:36;;;;;;;9.90;2.33;;;;;;;;;;5055993;28;20230;-61
2023/02/20 14:36:09;;;;;;;3.53;2.20;;;;;;;;;;5067465;28;20758;-61
2023/02/20 14:38:47;;;;;;;4.53;1.93;;;;;;;;;;5065736;28;20206;-61
2023/02/20 14:41:18;;;;;;;2.50;1.83;;;;;;;;;;5059996;28;20563;-61
2023/02/20 14:43:53;;;;;;;3.97;1.60;;;;;;;;;;5064932;28;20593;-61
2023/02/20 14:46:23;;;;;;;3.83;2.00;;;;;;;;;;5058954;28;20303;-61
2023/02/20 14:49:03;;;;;;;4.20;1.93;;;;;;;;;;5045643;28;20214;-61
2023/02/20 14:51:31;;;;;;;2.83;1.77;;;;;;;;;;5052784;28;20207;-62
2023/02/20 14:53:59;;;;;;;2.93;1.77;;;;;;;;;;5054176;28;20580;-62
2023/02/20 14:56:28;;;;;;;3.33;1.87;;;;;;;;;;5055095;28;20258;-62
2023/02/20 14:58:56;;;;;;;2.40;1.70;;;;;;;;;;5052798;28;20239;-62
2023/02/20 15:01:37;;;;;;;3.50;2.10;;;;;;;;;;5046829;28;20207;-63
2023/02/20 15:04:11;;;;;;;3.97;2.07;;;;;;;;;;5050601;28;20255;-63
2023/02/20 15:06:40;;;;;;;2.33;2.00;;;;;;;;;;5054175;28;20246;-62
2023/02/20 15:09:08;;;;;;;5.07;1.57;;;;;;;;;;5053676;28;20199;-62
2023/02/20 15:11:49;;;;;;;2.47;1.70;;;;;;;;;;5051743;28;20207;-61
2023/02/20 15:14:18;;;;;;;1.77;1.67;;;;;;;;;;5059483;28;20276;-62
2023/02/20 15:16:46;;;;;;;2.83;1.60;;;;;;;;;;5057243;28;20737;-61
2023/02/20 15:19:33;;;;;;;3.30;1.93;;;;;;;;;;5057282;28;20217;-61